createdAt,value
2023-01-19T00:00:34.400Z,-1.82
2023-01-19T00:03:37.128Z,-1.88
2023-01-19T00:06:39.112Z,-1.85
2023-01-19T00:09:40.778Z,-1.88
2023-01-19T00:12:42.582Z,-1.92
2023-01-19T00:15:44.412Z,-1.95
2023-01-19T00:18:46.316Z,-2.01
2023-01-19T00:21:48.015Z,-2.03
2023-01-19T00:24:50.352Z,-2.05
2023-01-19T00:27:52.032Z,-2.03
2023-01-19T00:30:53.632Z,-2.02
2023-01-19T00:33:55.438Z,-1.98
2023-01-19T00:36:57.035Z,-1.97
2023-01-19T00:39:58.815Z,-1.93
2023-01-19T00:43:00.907Z,-1.96
2023-01-19T00:46:02.950Z,-1.99
2023-01-19T00:49:05.737Z,-1.95
2023-01-19T00:52:07.480Z,-1.95
2023-01-19T00:55:11.608Z,-1.96
2023-01-19T00:58:13.360Z,-2.01
2023-01-19T01:01:15.131Z,-1.99
2023-01-19T01:04:16.905Z,-1.88
2023-01-19T01:07:18.542Z,-1.82
2023-01-19T01:10:23.367Z,-1.70
2023-01-19T01:13:27.541Z,-1.73
2023-01-19T01:16:29.826Z,-1.73
2023-01-19T01:19:31.800Z,-1.81
2023-01-19T01:22:33.494Z,-1.74
2023-01-19T01:25:37.789Z,-1.73
2023-01-19T01:28:39.377Z,-1.74
2023-01-19T01:31:41.148Z,-1.79
2023-01-19T01:34:42.867Z,-1.85
2023-01-19T01:37:45.687Z,-1.87
2023-01-19T01:40:47.302Z,-1.91
2023-01-19T01:43:58.153Z,-1.87
2023-01-19T01:47:00.636Z,-1.91
2023-01-19T01:50:23.658Z,-1.97
2023-01-19T01:53:25.283Z,-1.98
2023-01-19T01:56:42.529Z,-1.97
2023-01-19T01:59:48.610Z,-1.98
2023-01-19T02:02:51.119Z,-2.01
2023-01-19T02:05:57.553Z,-1.97
2023-01-19T02:09:25.932Z,-1.92
2023-01-19T02:12:47.948Z,-1.90
2023-01-19T02:16:02.905Z,-1.93
2023-01-19T02:19:07.271Z,-1.93
2023-01-19T02:22:20.331Z,-1.92
2023-01-19T02:25:22.714Z,-1.75
2023-01-19T02:28:26.077Z,-1.79
2023-01-19T02:31:31.047Z,-1.80
2023-01-19T02:34:32.906Z,-1.84
2023-01-19T02:37:40.173Z,-1.84
2023-01-19T02:40:45.166Z,-1.87
2023-01-19T02:43:49.564Z,-1.92
2023-01-19T02:46:54.193Z,-1.88
2023-01-19T02:50:00.745Z,-1.91
2023-01-19T02:53:17.294Z,-1.79
2023-01-19T02:56:49.951Z,-1.80
2023-01-19T03:00:26.937Z,-1.68
2023-01-19T03:03:40.828Z,-1.63
2023-01-19T03:07:08.815Z,-1.49
2023-01-19T03:10:20.539Z,-1.44
2023-01-19T03:13:40.213Z,-1.53
2023-01-19T03:16:55.300Z,-1.62
2023-01-19T03:19:58.074Z,-1.64
2023-01-19T03:23:04.403Z,-1.44
2023-01-19T03:26:11.060Z,-1.49
2023-01-19T03:29:15.112Z,-1.58
2023-01-19T03:32:20.109Z,-1.59
2023-01-19T03:35:25.478Z,-1.57
2023-01-19T03:38:28.951Z,-1.56
2023-01-19T03:41:32.774Z,-1.61
2023-01-19T03:44:38.095Z,-1.62
2023-01-19T03:47:40.530Z,-1.58
2023-01-19T03:50:43.299Z,-1.49
2023-01-19T03:53:45.848Z,-1.46
2023-01-19T03:56:47.607Z,-1.48
2023-01-19T03:59:49.537Z,-1.46
2023-01-19T04:02:51.267Z,-1.40
2023-01-19T04:05:53.029Z,-1.46
2023-01-19T04:08:56.021Z,-1.47
2023-01-19T04:11:57.605Z,-1.48
2023-01-19T04:14:59.298Z,-1.41
2023-01-19T04:18:01.173Z,-1.42
2023-01-19T04:21:04.976Z,-1.32
2023-01-19T04:24:07.397Z,-1.25
2023-01-19T04:27:09.161Z,-1.25
2023-01-19T04:30:11.356Z,-1.22
2023-01-19T04:33:12.897Z,-1.23
2023-01-19T04:36:14.623Z,-1.22
2023-01-19T04:39:16.415Z,-1.09
2023-01-19T04:42:18.361Z,-0.97
2023-01-19T04:45:20.438Z,-0.90
2023-01-19T04:48:22.191Z,-0.88
2023-01-19T04:51:24.141Z,-0.79
2023-01-19T04:54:27.665Z,-0.86
2023-01-19T04:57:30.237Z,-0.80
2023-01-19T05:00:32.176Z,-0.91
2023-01-19T05:03:33.793Z,-0.78
2023-01-19T05:06:35.633Z,-0.58
2023-01-19T05:09:37.324Z,-0.54
2023-01-19T05:12:39.156Z,-0.50
2023-01-19T05:15:40.757Z,-0.46
2023-01-19T05:18:42.385Z,-0.57
2023-01-19T05:21:44.106Z,-0.63
2023-01-19T05:24:45.827Z,-0.61
2023-01-19T05:27:47.892Z,-0.64
2023-01-19T05:30:50.193Z,-0.53
2023-01-19T05:33:52.281Z,-0.42
2023-01-19T05:36:54.194Z,-0.35
2023-01-19T05:39:56.175Z,-0.31
2023-01-19T05:43:01.126Z,-0.30
2023-01-19T05:46:09.473Z,-0.25
2023-01-19T05:49:12.917Z,-0.20
2023-01-19T05:52:14.943Z,-0.18
2023-01-19T05:55:16.682Z,-0.11
2023-01-19T05:58:21.619Z,-0.01
2023-01-19T06:01:23.548Z,0.01
2023-01-19T06:04:25.423Z,-0.01
2023-01-19T06:07:29.090Z,-0.04
2023-01-19T06:10:31.196Z,-0.05
2023-01-19T06:13:33.722Z,-0.08
2023-01-19T06:16:35.686Z,-0.11
2023-01-19T06:19:37.891Z,-0.09
2023-01-19T06:22:39.763Z,-0.07
2023-01-19T06:25:41.551Z,-0.09
2023-01-19T06:28:43.115Z,-0.16
2023-01-19T06:31:45.538Z,-0.26
2023-01-19T06:34:47.461Z,-0.24
2023-01-19T06:37:49.088Z,-0.24
2023-01-19T06:40:58.823Z,-0.25
2023-01-19T06:44:00.814Z,-0.25
2023-01-19T06:47:14.920Z,-0.14
2023-01-19T06:50:18.330Z,-0.06
2023-01-19T06:53:22.186Z,0.04
2023-01-19T06:56:24.051Z,0.07
2023-01-19T06:59:26.222Z,0.11
2023-01-19T07:02:28.686Z,0.11
2023-01-19T07:05:30.787Z,0.17
2023-01-19T07:08:36.432Z,0.21
2023-01-19T07:11:38.217Z,0.24
2023-01-19T07:14:40.101Z,0.25
2023-01-19T07:17:42.526Z,0.26
2023-01-19T07:20:45.958Z,0.25
2023-01-19T07:23:53.361Z,0.33
2023-01-19T07:26:55.125Z,0.37
2023-01-19T07:29:57.214Z,0.38
2023-01-19T07:32:59.257Z,0.41
2023-01-19T07:36:01.414Z,0.42
2023-01-19T07:39:03.194Z,0.53
2023-01-19T07:42:05.100Z,0.48
2023-01-19T07:45:07.869Z,0.46
2023-01-19T07:48:10.036Z,0.49
2023-01-19T07:51:19.074Z,0.48
2023-01-19T07:54:20.938Z,0.52
2023-01-19T07:57:23.209Z,0.57
2023-01-19T08:00:25.482Z,0.60
2023-01-19T08:03:27.273Z,0.57
2023-01-19T08:06:39.884Z,0.55
2023-01-19T08:09:42.552Z,0.54
2023-01-19T08:12:44.363Z,0.60
2023-01-19T08:15:53.105Z,0.63
2023-01-19T08:18:55.383Z,0.70
2023-01-19T08:21:58.925Z,0.68
2023-01-19T08:25:01.081Z,0.73
2023-01-19T08:28:05.356Z,0.78
2023-01-19T08:31:19.153Z,0.78
2023-01-19T08:34:22.109Z,0.76
2023-01-19T08:37:24.891Z,0.80
2023-01-19T08:40:28.736Z,0.88
2023-01-19T08:43:30.341Z,0.93
2023-01-19T08:46:32.148Z,0.99
2023-01-19T08:49:34.083Z,1.04
2023-01-19T08:52:35.852Z,1.02
2023-01-19T08:55:38.013Z,1.00
2023-01-19T08:58:42.264Z,1.06
2023-01-19T09:01:46.217Z,1.07
2023-01-19T09:04:48.093Z,1.10
2023-01-19T09:07:51.844Z,1.12
2023-01-19T09:10:53.618Z,1.13
2023-01-19T09:13:55.590Z,1.12
2023-01-19T09:16:57.419Z,1.12
2023-01-19T09:19:59.392Z,1.11
2023-01-19T09:23:01.181Z,1.19
2023-01-19T09:26:05.376Z,1.42
2023-01-19T09:29:07.297Z,1.49
2023-01-19T09:32:11.229Z,1.44
2023-01-19T09:35:14.648Z,1.36
2023-01-19T09:38:16.967Z,1.32
2023-01-19T09:41:22.846Z,1.31
2023-01-19T09:44:35.529Z,1.40
2023-01-19T09:47:39.394Z,1.43
2023-01-19T09:50:47.025Z,1.43
2023-01-19T09:54:03.114Z,1.32
2023-01-19T09:57:11.353Z,1.27
2023-01-19T10:00:24.516Z,1.32
2023-01-19T10:03:26.238Z,1.24
2023-01-19T10:06:30.678Z,1.19
2023-01-19T10:09:47.727Z,1.27
2023-01-19T10:13:23.781Z,1.23
2023-01-19T10:16:31.604Z,1.17
2023-01-19T10:19:38.163Z,1.14
2023-01-19T10:22:49.853Z,1.11
2023-01-19T10:25:52.289Z,1.05
2023-01-19T10:29:21.110Z,1.02
2023-01-19T10:32:27.617Z,1.27
2023-01-19T10:35:30.054Z,1.52
2023-01-19T10:38:34.337Z,1.66
2023-01-19T10:41:53.337Z,1.75
2023-01-19T10:44:55.647Z,1.80
2023-01-19T10:48:07.675Z,1.82
2023-01-19T10:51:11.101Z,1.88
2023-01-19T10:54:13.714Z,1.93
2023-01-19T10:57:31.414Z,1.97
2023-01-19T11:00:41.703Z,1.93
2023-01-19T11:03:43.787Z,1.83
2023-01-19T11:06:45.571Z,1.91
2023-01-19T11:09:48.747Z,1.90
2023-01-19T11:13:04.600Z,1.82
2023-01-19T11:16:15.792Z,1.73
2023-01-19T11:19:27.986Z,1.76
2023-01-19T11:22:33.428Z,1.79
2023-01-19T11:25:36.298Z,1.83
2023-01-19T11:28:44.974Z,1.86
2023-01-19T11:31:47.139Z,1.84
2023-01-19T11:34:49.749Z,1.93
2023-01-19T11:38:06.461Z,1.99
2023-01-19T11:41:18.766Z,2.02
2023-01-19T11:44:31.769Z,2.11
2023-01-19T11:47:43.927Z,2.05
2023-01-19T11:50:46.348Z,1.97
2023-01-19T11:53:52.737Z,1.75
2023-01-19T11:56:58.878Z,1.46
2023-01-19T12:00:05.185Z,1.01
2023-01-19T12:03:21.161Z,0.81
2023-01-19T12:06:30.962Z,0.63
2023-01-19T12:09:42.811Z,0.60
2023-01-19T12:12:44.880Z,0.61
2023-01-19T12:15:48.219Z,0.54
2023-01-19T12:19:16.122Z,0.46
2023-01-19T12:22:21.082Z,0.45
2023-01-19T12:25:29.820Z,0.35
2023-01-19T12:28:36.801Z,0.29
2023-01-19T12:31:40.581Z,0.33
2023-01-19T12:34:55.884Z,0.31
2023-01-19T12:37:57.780Z,0.34
2023-01-19T12:41:19.854Z,0.47
2023-01-19T12:44:24.363Z,0.66
2023-01-19T12:47:27.354Z,0.77
2023-01-19T12:50:40.231Z,0.87
2023-01-19T12:53:54.622Z,0.87
2023-01-19T12:57:17.116Z,0.87
2023-01-19T13:00:24.682Z,0.94
2023-01-19T13:03:26.960Z,1.05
2023-01-19T13:07:05.700Z,1.12
2023-01-19T13:10:44.771Z,1.19
2023-01-19T13:13:59.154Z,1.26
2023-01-19T13:17:03.646Z,1.31
2023-01-19T13:20:22.687Z,1.30
2023-01-19T13:23:27.405Z,1.38
2023-01-19T13:26:33.201Z,1.48
2023-01-19T13:29:37.444Z,1.53
2023-01-19T13:32:42.268Z,1.60
2023-01-19T13:35:54.660Z,1.67
2023-01-19T13:39:00.054Z,1.69
2023-01-19T13:42:06.154Z,1.73
2023-01-19T13:45:11.771Z,1.82
2023-01-19T13:48:18.030Z,1.90
2023-01-19T13:51:20.464Z,1.93
2023-01-19T13:54:26.120Z,1.97
2023-01-19T13:57:27.764Z,2.00
2023-01-19T14:00:30.974Z,2.00
2023-01-19T14:03:32.969Z,1.93
2023-01-19T14:06:36.822Z,1.83
2023-01-19T14:09:39.570Z,1.83
2023-01-19T14:12:54.554Z,1.74
2023-01-19T14:16:06.218Z,1.71
2023-01-19T14:19:08.397Z,1.67
2023-01-19T14:22:10.279Z,1.67
2023-01-19T14:25:35.678Z,1.66
2023-01-19T14:28:45.726Z,1.63
2023-01-19T14:31:50.050Z,1.54
2023-01-19T14:35:07.397Z,1.47
2023-01-19T14:38:14.299Z,1.43
2023-01-19T14:41:49.697Z,1.39
2023-01-19T14:44:53.548Z,1.44
2023-01-19T14:47:55.646Z,1.45
2023-01-19T14:51:05.332Z,1.51
2023-01-19T14:54:18.074Z,1.61
2023-01-19T14:57:20.368Z,1.64
2023-01-19T15:00:28.225Z,1.62
2023-01-19T15:03:44.727Z,1.66
2023-01-19T15:06:48.790Z,1.63
2023-01-19T15:09:51.319Z,1.55
2023-01-19T15:12:54.972Z,1.42
2023-01-19T15:15:58.663Z,1.35
2023-01-19T15:19:00.643Z,1.15
2023-01-19T15:22:02.466Z,0.97
2023-01-19T15:25:04.532Z,0.91
2023-01-19T15:28:12.485Z,0.82
2023-01-19T15:31:26.938Z,0.75
2023-01-19T15:34:28.749Z,0.64
2023-01-19T15:37:30.720Z,0.58
2023-01-19T15:40:32.550Z,0.53
2023-01-19T15:43:34.272Z,0.48
2023-01-19T15:46:36.288Z,0.41
2023-01-19T15:49:38.096Z,0.39
2023-01-19T15:52:39.910Z,0.33
2023-01-19T15:55:42.175Z,0.34
2023-01-19T15:58:44.929Z,0.39
2023-01-19T16:01:47.170Z,0.30
2023-01-19T16:04:49.685Z,0.33
2023-01-19T16:07:52.010Z,0.50
2023-01-19T16:10:54.088Z,0.33
2023-01-19T16:13:55.994Z,0.10
2023-01-19T16:16:59.975Z,0.10
2023-01-19T16:20:01.944Z,0.11
2023-01-19T16:23:19.601Z,0.01
2023-01-19T16:26:27.470Z,0.02
2023-01-19T16:29:30.479Z,-0.05
2023-01-19T16:32:34.021Z,-0.21
2023-01-19T16:35:35.958Z,-0.27
2023-01-19T16:38:38.027Z,-0.38
2023-01-19T16:41:40.302Z,-0.36
2023-01-19T16:44:42.605Z,-0.20
2023-01-19T16:47:46.895Z,-0.05
2023-01-19T16:51:06.090Z,0.01
2023-01-19T16:54:12.225Z,0.08
2023-01-19T16:57:15.163Z,0.04
2023-01-19T17:00:17.737Z,-0.13
2023-01-19T17:03:19.745Z,-0.28
2023-01-19T17:06:23.450Z,-0.35
2023-01-19T17:09:25.157Z,-0.49
2023-01-19T17:12:26.977Z,-0.59
2023-01-19T17:15:30.670Z,-0.62
2023-01-19T17:18:34.683Z,-0.71
2023-01-19T17:21:36.602Z,-0.77
2023-01-19T17:24:42.527Z,-0.84
2023-01-19T17:27:44.595Z,-0.85
2023-01-19T17:30:47.564Z,-0.87
2023-01-19T17:33:50.871Z,-0.90
2023-01-19T17:36:52.861Z,-0.91
2023-01-19T17:39:55.292Z,-0.94
2023-01-19T17:42:57.019Z,-1.01
2023-01-19T17:45:59.938Z,-1.04
2023-01-19T17:49:03.653Z,-1.02
2023-01-19T17:52:05.343Z,-0.88
2023-01-19T17:55:08.590Z,-0.74
2023-01-19T17:58:12.388Z,-0.64
2023-01-19T18:01:19.224Z,-0.49
2023-01-19T18:04:21.045Z,-0.49
2023-01-19T18:07:22.901Z,-0.59
2023-01-19T18:10:24.741Z,-0.70
2023-01-19T18:13:27.512Z,-0.76
2023-01-19T18:16:30.222Z,-0.79
2023-01-19T18:19:32.298Z,-0.75
2023-01-19T18:22:34.362Z,-0.80
2023-01-19T18:25:38.599Z,-0.68
2023-01-19T18:28:40.675Z,-0.49
2023-01-19T18:31:42.935Z,-0.43
2023-01-19T18:34:45.788Z,-0.52
2023-01-19T18:37:48.622Z,-0.63
2023-01-19T18:41:00.797Z,-0.62
2023-01-19T18:44:03.082Z,-0.64
2023-01-19T18:47:05.815Z,-0.81
2023-01-19T18:50:08.744Z,-0.86
2023-01-19T18:53:10.837Z,-0.87
2023-01-19T18:56:14.668Z,-0.85
2023-01-19T18:59:16.504Z,-0.81
2023-01-19T19:02:18.408Z,-0.78
2023-01-19T19:05:20.091Z,-0.72
2023-01-19T19:08:22.218Z,-0.76
2023-01-19T19:11:25.444Z,-0.80
2023-01-19T19:14:27.339Z,-0.90
2023-01-19T19:17:29.497Z,-0.94
2023-01-19T19:20:31.142Z,-0.98
2023-01-19T19:23:33.749Z,-0.93
2023-01-19T19:26:35.747Z,-0.81
2023-01-19T19:29:37.429Z,-0.85
2023-01-19T19:32:39.251Z,-0.93
2023-01-19T19:35:41.104Z,-0.94
2023-01-19T19:38:44.609Z,-0.94
2023-01-19T19:41:46.486Z,-0.96
2023-01-19T19:44:48.336Z,-1.03
2023-01-19T19:47:51.276Z,-1.08
2023-01-19T19:50:53.990Z,-1.13
2023-01-19T19:53:59.522Z,-1.17
2023-01-19T19:57:01.370Z,-1.20
2023-01-19T20:00:05.177Z,-1.19
2023-01-19T20:03:13.613Z,-1.20
2023-01-19T20:06:21.427Z,-1.21
2023-01-19T20:09:23.840Z,-1.18
2023-01-19T20:12:25.654Z,-1.20
2023-01-19T20:15:28.745Z,-1.25
2023-01-19T20:18:31.846Z,-1.14
2023-01-19T20:21:37.702Z,-0.94
2023-01-19T20:24:39.487Z,-0.89
2023-01-19T20:27:41.454Z,-0.94
2023-01-19T20:30:43.740Z,-0.90
2023-01-19T20:33:50.850Z,-0.89
2023-01-19T20:36:54.029Z,-0.91
2023-01-19T20:39:55.777Z,-1.05
2023-01-19T20:42:57.425Z,-1.12
2023-01-19T20:46:00.227Z,-1.18
2023-01-19T20:49:02.058Z,-1.19
2023-01-19T20:52:04.171Z,-1.20
2023-01-19T20:55:08.911Z,-1.19
2023-01-19T20:58:10.712Z,-1.12
2023-01-19T21:01:15.500Z,-1.01
2023-01-19T21:04:17.878Z,-0.93
2023-01-19T21:07:19.879Z,-0.94
2023-01-19T21:10:22.281Z,-0.89
2023-01-19T21:13:24.404Z,-0.90
2023-01-19T21:16:32.272Z,-0.91
2023-01-19T21:19:34.085Z,-0.92
2023-01-19T21:22:35.885Z,-0.95
2023-01-19T21:25:38.705Z,-1.01
2023-01-19T21:28:40.607Z,-1.00
2023-01-19T21:31:42.761Z,-1.01
2023-01-19T21:34:45.717Z,-1.03
2023-01-19T21:37:47.889Z,-1.12
2023-01-19T21:40:50.502Z,-1.09
2023-01-19T21:43:54.906Z,-1.15
2023-01-19T21:46:56.853Z,-1.14
2023-01-19T21:49:58.851Z,-1.20
2023-01-19T21:53:00.566Z,-1.12
2023-01-19T21:56:02.304Z,-1.15
2023-01-19T21:59:04.962Z,-1.23
2023-01-19T22:02:06.804Z,-1.22
2023-01-19T22:05:09.143Z,-1.27
2023-01-19T22:08:10.936Z,-1.33
2023-01-19T22:11:15.213Z,-1.30
2023-01-19T22:14:16.846Z,-1.26
2023-01-19T22:17:18.662Z,-1.29
2023-01-19T22:20:20.750Z,-1.34
2023-01-19T22:23:23.628Z,-1.39
2023-01-19T22:26:26.586Z,-1.37
2023-01-19T22:29:28.499Z,-1.40
2023-01-19T22:32:31.558Z,-1.40
2023-01-19T22:35:33.396Z,-1.42
2023-01-19T22:38:35.474Z,-1.44
2023-01-19T22:41:42.910Z,-1.47
2023-01-19T22:44:46.155Z,-1.44
2023-01-19T22:47:48.020Z,-1.44
2023-01-19T22:50:56.133Z,-1.41
2023-01-19T22:53:58.299Z,-1.44
2023-01-19T22:57:00.329Z,-1.46
2023-01-19T23:00:06.831Z,-1.48
2023-01-19T23:03:08.483Z,-1.50
2023-01-19T23:06:28.079Z,-1.52
2023-01-19T23:09:29.864Z,-1.52
2023-01-19T23:12:31.735Z,-1.55
2023-01-19T23:15:34.433Z,-1.56
2023-01-19T23:18:36.201Z,-1.57
2023-01-19T23:21:37.780Z,-1.62
2023-01-19T23:24:39.756Z,-1.64
2023-01-19T23:27:41.760Z,-1.69
2023-01-19T23:30:44.356Z,-1.71
2023-01-19T23:33:46.575Z,-1.70
2023-01-19T23:36:48.467Z,-1.75
2023-01-19T23:39:50.356Z,-1.78
2023-01-19T23:42:52.120Z,-1.77
2023-01-19T23:45:54.032Z,-1.75
2023-01-19T23:48:55.839Z,-1.77
2023-01-19T23:51:58.600Z,-1.71
2023-01-19T23:55:00.342Z,-1.68
2023-01-19T23:58:02.163Z,-1.63
